Terminal Aerodrome Forecast
Issued by NWS

Home | Current Version | Previous Version | Text Only | Print | Product List | Glossary On
Versions: 1 2 3 4 5 6 7 8 9 10 11 12 13 14 15 16
789
FTUS42 KTBW 232323
TAFPGD
TAF
KPGD 232323Z 2400/2424 22006KT P6SM VCSH BKN200
     FM240400 26006KT P6SM VCSH SCT020 BKN200
     FM240700 27006KT 6SM BR VCSH SCT015 BKN060
     FM240900 36006KT 3SM BR BKN010 OVC025
     FM241500 36007KT P6SM BKN015 BKN025
     FM241700 34008KT P6SM SCT020 SCT035=

USA.gov is the U.S. government's official web portal to all federal, state and local government web resources and services.